createdAt,value
2022-12-08T00:01:25.178Z,95.00
2022-12-08T00:03:53.937Z,95.20
2022-12-08T00:06:43.352Z,95.20
2022-12-08T00:09:24.812Z,95.30
2022-12-08T00:11:54.701Z,95.30
2022-12-08T00:14:25.737Z,95.30
2022-12-08T00:16:55.367Z,95.00
2022-12-08T00:19:24.309Z,94.80
2022-12-08T00:21:52.581Z,94.90
2022-12-08T00:24:21.123Z,94.90
2022-12-08T00:26:49.294Z,94.60
2022-12-08T00:29:17.885Z,94.70
2022-12-08T00:31:45.949Z,94.80
2022-12-08T00:34:15.830Z,95.00
2022-12-08T00:36:44.545Z,94.90
2022-12-08T00:39:13.990Z,95.10
2022-12-08T00:41:59.249Z,95.20
2022-12-08T00:44:27.321Z,95.50
2022-12-08T00:46:55.376Z,95.80
2022-12-08T00:49:24.823Z,96.00
2022-12-08T00:51:52.657Z,96.30
2022-12-08T00:54:20.987Z,96.30
2022-12-08T00:56:48.780Z,96.30
2022-12-08T00:59:16.772Z,96.40
2022-12-08T01:01:46.315Z,96.30
2022-12-08T01:04:16.433Z,95.90
2022-12-08T01:06:46.538Z,95.80
2022-12-08T01:09:14.995Z,95.60
2022-12-08T01:11:44.348Z,95.60
2022-12-08T01:14:12.484Z,95.60
2022-12-08T01:16:41.414Z,96.10
2022-12-08T01:19:12.063Z,96.10
2022-12-08T01:21:40.207Z,95.50
2022-12-08T01:24:12.781Z,95.50
2022-12-08T01:26:40.627Z,95.70
2022-12-08T01:29:08.466Z,96.20
2022-12-08T01:31:36.224Z,96.80
2022-12-08T01:34:04.177Z,97.10
2022-12-08T01:36:33.802Z,97.60
2022-12-08T01:39:02.769Z,98.00
2022-12-08T01:41:33.664Z,98.10
2022-12-08T01:44:03.006Z,98.40
2022-12-08T01:46:32.646Z,98.50
2022-12-08T01:49:04.539Z,99.10
2022-12-08T01:51:35.889Z,99.80
2022-12-08T01:54:05.225Z,99.90
2022-12-08T01:56:42.397Z,99.90
2022-12-08T01:59:11.898Z,99.90
2022-12-08T02:01:40.043Z,99.90
2022-12-08T02:04:07.908Z,99.90
2022-12-08T02:06:39.543Z,99.90
2022-12-08T02:09:07.793Z,99.90
2022-12-08T02:11:36.892Z,99.90
2022-12-08T02:14:06.933Z,99.90
2022-12-08T02:16:42.033Z,99.90
2022-12-08T02:19:50.446Z,99.90
2022-12-08T02:22:27.630Z,99.90
2022-12-08T02:25:02.904Z,99.90
2022-12-08T02:27:44.144Z,99.90
2022-12-08T02:30:20.761Z,99.90
2022-12-08T02:33:28.756Z,99.90
2022-12-08T02:36:02.782Z,99.90
2022-12-08T02:38:40.277Z,99.90
2022-12-08T02:41:21.712Z,99.90
2022-12-08T02:43:54.365Z,99.90
2022-12-08T02:46:25.759Z,99.90
2022-12-08T02:48:54.242Z,99.90
2022-12-08T02:51:23.404Z,99.90
2022-12-08T02:53:51.598Z,99.90
2022-12-08T02:56:36.544Z,99.90
2022-12-08T02:59:34.770Z,99.90
2022-12-08T03:02:26.671Z,99.90
2022-12-08T03:05:02.640Z,99.90
2022-12-08T03:07:36.189Z,99.90
2022-12-08T03:10:11.392Z,99.90
2022-12-08T03:12:44.062Z,99.90
2022-12-08T03:15:15.185Z,99.90
2022-12-08T03:17:49.913Z,99.90
2022-12-08T03:20:22.386Z,99.90
2022-12-08T03:22:54.825Z,99.90
2022-12-08T03:25:28.380Z,99.90
2022-12-08T03:27:56.202Z,99.90
2022-12-08T03:30:24.120Z,99.90
2022-12-08T03:32:56.207Z,99.90
2022-12-08T03:35:26.911Z,99.90
2022-12-08T03:38:03.692Z,99.90
2022-12-08T03:40:31.621Z,99.90
2022-12-08T03:42:59.445Z,99.90
2022-12-08T03:45:27.282Z,99.90
2022-12-08T03:47:55.048Z,99.90
2022-12-08T03:50:23.065Z,99.90
2022-12-08T03:52:50.977Z,99.90
2022-12-08T03:55:21.362Z,99.90
2022-12-08T03:57:49.165Z,99.90
2022-12-08T04:00:17.901Z,99.90
2022-12-08T04:02:45.774Z,99.90
2022-12-08T04:05:13.572Z,99.90
2022-12-08T04:07:41.408Z,99.90
2022-12-08T04:10:10.446Z,99.90
2022-12-08T04:12:39.593Z,99.90
2022-12-08T04:15:08.458Z,99.90
2022-12-08T04:17:36.400Z,99.90
2022-12-08T04:20:04.760Z,99.90
2022-12-08T04:22:32.892Z,99.90
2022-12-08T04:25:01.857Z,99.90
2022-12-08T04:27:29.675Z,99.90
2022-12-08T04:29:58.816Z,99.90
2022-12-08T04:32:26.697Z,99.90
2022-12-08T04:34:54.495Z,99.90
2022-12-08T04:37:22.281Z,99.90
2022-12-08T04:39:50.049Z,99.90
2022-12-08T04:42:17.857Z,99.90
2022-12-08T04:44:45.769Z,99.90
2022-12-08T04:47:15.001Z,99.90
2022-12-08T04:49:42.865Z,99.90
2022-12-08T04:52:10.701Z,99.90
2022-12-08T04:54:38.660Z,99.90
2022-12-08T04:57:06.474Z,99.90
2022-12-08T04:59:34.252Z,99.90
2022-12-08T05:02:02.223Z,99.90
2022-12-08T05:04:31.560Z,99.90
2022-12-08T05:06:59.363Z,99.90
2022-12-08T05:09:27.207Z,99.90
2022-12-08T05:11:55.008Z,99.90
2022-12-08T05:14:22.823Z,99.90
2022-12-08T05:16:50.761Z,99.90
2022-12-08T05:19:19.034Z,99.90
2022-12-08T05:21:48.315Z,99.90
2022-12-08T05:24:16.122Z,99.90
2022-12-08T05:26:43.909Z,99.90
2022-12-08T05:29:11.684Z,99.90
2022-12-08T05:31:39.599Z,99.90
2022-12-08T05:34:07.502Z,99.90
2022-12-08T05:36:35.472Z,99.90
2022-12-08T05:39:04.870Z,99.90
2022-12-08T05:41:32.812Z,99.90
2022-12-08T05:44:00.715Z,99.90
2022-12-08T05:46:29.414Z,99.90
2022-12-08T05:48:57.342Z,99.90
2022-12-08T05:51:25.450Z,99.90
2022-12-08T05:53:54.031Z,99.90
2022-12-08T05:56:23.521Z,99.90
2022-12-08T05:58:51.811Z,99.90
2022-12-08T06:01:24.446Z,99.90
2022-12-08T06:03:52.492Z,99.90
2022-12-08T06:06:20.860Z,99.90
2022-12-08T06:08:48.684Z,99.90
2022-12-08T06:11:19.681Z,99.90
2022-12-08T06:13:49.210Z,99.90
2022-12-08T06:16:17.525Z,99.90
2022-12-08T06:18:45.738Z,99.90
2022-12-08T06:21:15.462Z,99.90
2022-12-08T06:23:43.995Z,99.90
2022-12-08T06:26:14.548Z,99.90
2022-12-08T06:28:43.606Z,99.90
2022-12-08T06:31:15.981Z,99.90
2022-12-08T06:33:44.029Z,99.90
2022-12-08T06:36:13.486Z,99.90
2022-12-08T06:38:43.622Z,99.90
2022-12-08T06:41:13.906Z,99.90
2022-12-08T06:43:42.706Z,99.90
2022-12-08T06:46:14.375Z,99.90
2022-12-08T06:48:42.467Z,99.90
2022-12-08T06:51:12.260Z,99.90
2022-12-08T06:53:40.823Z,99.90
2022-12-08T06:56:09.754Z,99.90
2022-12-08T06:58:37.905Z,99.90
2022-12-08T07:01:07.334Z,99.90
2022-12-08T07:03:36.740Z,99.90
2022-12-08T07:06:04.855Z,99.90
2022-12-08T07:08:32.857Z,99.90
2022-12-08T07:11:01.012Z,99.90
2022-12-08T07:13:28.856Z,99.90
2022-12-08T07:15:56.716Z,99.90
2022-12-08T07:18:24.499Z,99.90
2022-12-08T07:20:53.627Z,99.90
2022-12-08T07:23:21.439Z,99.90
2022-12-08T07:25:49.262Z,99.90
2022-12-08T07:28:17.088Z,99.90
2022-12-08T07:30:44.942Z,99.90
2022-12-08T07:33:12.809Z,99.90
2022-12-08T07:35:43.823Z,99.90
2022-12-08T07:38:15.538Z,99.90
2022-12-08T07:40:43.360Z,99.90
2022-12-08T07:43:11.138Z,99.90
2022-12-08T07:45:38.917Z,99.90
2022-12-08T07:48:07.384Z,99.90
2022-12-08T07:50:35.754Z,99.90
2022-12-08T07:53:03.523Z,99.90
2022-12-08T07:55:32.680Z,99.90
2022-12-08T07:58:00.527Z,99.90
2022-12-08T08:00:28.371Z,99.90
2022-12-08T08:02:56.303Z,99.90
2022-12-08T08:05:24.179Z,99.90
2022-12-08T08:07:52.067Z,99.90
2022-12-08T08:10:19.945Z,99.90
2022-12-08T08:12:49.102Z,99.90
2022-12-08T08:15:17.798Z,99.80
2022-12-08T08:17:45.755Z,99.50
2022-12-08T08:20:14.573Z,99.10
2022-12-08T08:22:42.425Z,98.70
2022-12-08T08:25:10.711Z,98.10
2022-12-08T08:27:38.604Z,98.30
2022-12-08T08:30:09.415Z,99.00
2022-12-08T08:32:37.369Z,98.90
2022-12-08T08:35:05.960Z,98.10
2022-12-08T08:37:33.790Z,96.30
2022-12-08T08:40:02.075Z,96.70
2022-12-08T08:42:30.037Z,96.30
2022-12-08T08:44:57.855Z,96.20
2022-12-08T08:47:27.087Z,95.50
2022-12-08T08:49:54.961Z,95.50
2022-12-08T08:52:22.792Z,95.40
2022-12-08T08:54:50.577Z,95.70
2022-12-08T08:57:25.122Z,95.70
2022-12-08T08:59:53.523Z,95.70
2022-12-08T09:02:22.017Z,96.20
2022-12-08T09:04:51.235Z,96.60
2022-12-08T09:07:19.130Z,96.00
2022-12-08T09:09:46.925Z,94.90
2022-12-08T09:12:14.859Z,93.90
2022-12-08T09:14:42.661Z,93.40
2022-12-08T09:17:10.532Z,93.30
2022-12-08T09:19:38.453Z,93.10
2022-12-08T09:22:07.740Z,93.50
2022-12-08T09:24:35.548Z,93.70
2022-12-08T09:27:03.337Z,93.30
2022-12-08T09:29:35.905Z,92.60
2022-12-08T09:32:04.098Z,93.90
2022-12-08T09:34:32.460Z,94.50
2022-12-08T09:37:00.266Z,94.60
2022-12-08T09:39:29.592Z,94.40
2022-12-08T09:42:01.372Z,95.30
2022-12-08T09:44:51.440Z,94.60
2022-12-08T09:47:23.546Z,92.50
2022-12-08T09:50:00.583Z,91.60
2022-12-08T09:52:33.512Z,91.70
2022-12-08T09:55:10.694Z,91.90
2022-12-08T09:57:38.570Z,90.60
2022-12-08T10:00:08.144Z,90.20
2022-12-08T10:02:36.112Z,89.70
2022-12-08T10:05:04.000Z,88.80
2022-12-08T10:07:40.211Z,88.60
2022-12-08T10:10:22.803Z,88.20
2022-12-08T10:12:55.834Z,86.20
2022-12-08T10:15:39.118Z,87.30
2022-12-08T10:18:14.443Z,86.50
2022-12-08T10:20:44.228Z,86.00
2022-12-08T10:23:22.216Z,86.00
2022-12-08T10:25:55.390Z,85.40
2022-12-08T10:28:23.255Z,83.90
2022-12-08T10:30:51.066Z,84.70
2022-12-08T10:33:21.764Z,84.50
2022-12-08T10:35:51.837Z,84.30
2022-12-08T10:38:23.224Z,83.90
2022-12-08T10:40:59.278Z,83.30
2022-12-08T10:43:28.749Z,82.50
2022-12-08T10:46:08.538Z,82.80
2022-12-08T10:48:36.373Z,80.10
2022-12-08T10:51:05.676Z,80.60
2022-12-08T10:53:34.449Z,80.20
2022-12-08T10:56:16.442Z,80.00
2022-12-08T10:58:46.176Z,79.30
2022-12-08T11:01:18.043Z,79.60
2022-12-08T11:03:49.693Z,78.90
2022-12-08T11:06:22.880Z,78.10
2022-12-08T11:08:53.752Z,78.80
2022-12-08T11:11:38.268Z,78.20
2022-12-08T11:14:08.856Z,78.20
2022-12-08T11:16:37.240Z,77.70
2022-12-08T11:19:07.398Z,77.40
2022-12-08T11:21:38.204Z,78.60
2022-12-08T11:24:23.868Z,77.70
2022-12-08T11:26:56.097Z,76.80
2022-12-08T11:29:23.980Z,76.80
2022-12-08T11:31:55.392Z,77.60
2022-12-08T11:34:31.509Z,76.50
2022-12-08T11:37:00.475Z,75.80
2022-12-08T11:39:31.041Z,77.10
2022-12-08T11:42:02.148Z,76.20
2022-12-08T11:44:35.109Z,76.40
2022-12-08T11:47:08.649Z,76.40
2022-12-08T11:49:39.593Z,76.10
2022-12-08T11:52:15.149Z,76.30
2022-12-08T11:54:47.694Z,75.60
2022-12-08T11:57:20.565Z,75.00
2022-12-08T11:59:51.060Z,75.20
2022-12-08T12:02:21.685Z,74.70
2022-12-08T12:04:54.567Z,74.60
2022-12-08T12:07:42.987Z,74.50
2022-12-08T12:10:33.374Z,74.60
2022-12-08T12:13:14.183Z,74.80
2022-12-08T12:16:16.473Z,74.90
2022-12-08T12:18:46.800Z,74.70
2022-12-08T12:21:19.538Z,74.80
2022-12-08T12:23:53.641Z,73.40
2022-12-08T12:26:23.568Z,73.50
2022-12-08T12:28:56.730Z,74.30
2022-12-08T12:31:27.118Z,75.40
2022-12-08T12:34:04.378Z,75.40
2022-12-08T12:36:33.113Z,75.40
2022-12-08T12:39:03.088Z,75.30
2022-12-08T12:41:37.840Z,73.40
2022-12-08T12:44:44.216Z,73.40
2022-12-08T12:47:15.625Z,74.90
2022-12-08T12:50:06.500Z,74.20
2022-12-08T12:52:44.936Z,73.40
2022-12-08T12:55:28.092Z,74.00
2022-12-08T12:57:57.460Z,73.00
2022-12-08T13:00:28.181Z,72.50
2022-12-08T13:02:58.542Z,72.90
2022-12-08T13:05:28.619Z,73.20
2022-12-08T13:07:59.965Z,71.40
2022-12-08T13:10:30.204Z,68.90
2022-12-08T13:13:17.224Z,69.60
2022-12-08T13:15:52.409Z,68.90
2022-12-08T13:18:24.504Z,69.80
2022-12-08T13:20:54.432Z,70.30
2022-12-08T13:23:45.173Z,71.80
2022-12-08T13:26:19.658Z,73.20
2022-12-08T13:29:22.919Z,74.40
2022-12-08T13:31:54.160Z,75.10
2022-12-08T13:34:28.595Z,75.20
2022-12-08T13:37:20.753Z,74.40
2022-12-08T13:39:52.788Z,76.10
2022-12-08T13:42:25.921Z,76.30
2022-12-08T13:48:21.776Z,76.90
2022-12-08T13:59:30.320Z,74.90
2022-12-08T14:02:02.022Z,74.70
2022-12-08T14:04:47.822Z,74.70
2022-12-08T14:07:19.730Z,75.10
2022-12-08T14:09:47.834Z,75.20
2022-12-08T14:12:20.477Z,75.00
2022-12-08T14:15:06.261Z,75.10
2022-12-08T14:17:34.821Z,74.50
2022-12-08T14:20:13.396Z,73.90
2022-12-08T14:22:42.634Z,74.30
2022-12-08T14:25:15.698Z,74.20
2022-12-08T14:27:44.202Z,72.70
2022-12-08T14:30:20.614Z,73.80
2022-12-08T14:32:50.671Z,73.30
2022-12-08T14:35:26.565Z,73.50
2022-12-08T14:37:56.913Z,72.70
2022-12-08T14:40:28.715Z,73.50
2022-12-08T14:43:13.558Z,73.90
2022-12-08T14:45:48.618Z,74.80
2022-12-08T14:48:25.248Z,74.90
2022-12-08T14:51:02.793Z,74.60
2022-12-08T14:53:38.303Z,74.30
2022-12-08T14:56:09.961Z,74.60
2022-12-08T14:58:37.956Z,74.50
2022-12-08T15:01:10.289Z,73.70
2022-12-08T15:03:38.268Z,72.40
2022-12-08T15:06:09.302Z,72.50
2022-12-08T15:08:53.728Z,73.80
2022-12-08T15:11:32.441Z,73.90
2022-12-08T15:14:00.825Z,73.40
2022-12-08T15:16:31.957Z,73.30
2022-12-08T15:19:19.614Z,73.30
2022-12-08T15:21:48.837Z,73.20
2022-12-08T15:24:17.681Z,73.70
2022-12-08T15:26:47.548Z,74.10
2022-12-08T15:29:21.592Z,74.00
2022-12-08T15:31:49.901Z,73.00
2022-12-08T15:34:17.778Z,72.60
2022-12-08T15:36:47.299Z,73.20
2022-12-08T15:39:31.143Z,72.40
2022-12-08T15:41:59.445Z,71.70
2022-12-08T15:44:27.724Z,72.80
2022-12-08T15:46:56.363Z,73.10
2022-12-08T15:49:25.077Z,73.50
2022-12-08T15:52:00.582Z,73.80
2022-12-08T15:54:37.158Z,73.90
2022-12-08T15:57:35.921Z,74.10
2022-12-08T15:59:54.008Z,74.00
2022-12-08T16:02:23.028Z,74.60
2022-12-08T16:07:41.573Z,74.60
2022-12-08T16:10:15.852Z,75.00
2022-12-08T16:15:57.192Z,75.40
2022-12-08T16:18:30.833Z,76.00
2022-12-08T16:21:09.665Z,76.30
2022-12-08T16:23:45.811Z,77.00
2022-12-08T16:29:04.969Z,78.20
2022-12-08T16:31:33.640Z,79.40
2022-12-08T16:34:01.660Z,79.70
2022-12-08T16:36:29.512Z,80.20
2022-12-08T16:38:57.312Z,80.20
2022-12-08T16:41:44.074Z,80.90
2022-12-08T16:44:11.913Z,82.10
2022-12-08T16:46:39.926Z,82.00
2022-12-08T16:49:10.177Z,82.30
2022-12-08T16:51:38.132Z,82.30
2022-12-08T16:54:06.122Z,82.20
2022-12-08T16:56:35.296Z,82.20
2022-12-08T16:59:03.438Z,82.20
2022-12-08T17:01:31.423Z,82.10
2022-12-08T17:04:30.935Z,82.60
2022-12-08T17:06:47.515Z,82.50
2022-12-08T17:09:15.285Z,82.90
2022-12-08T17:11:44.623Z,83.20
2022-12-08T17:14:12.766Z,83.30
2022-12-08T17:16:41.146Z,83.30
2022-12-08T17:19:09.337Z,83.30
2022-12-08T17:21:37.128Z,83.30
2022-12-08T17:24:05.246Z,83.90
2022-12-08T17:26:33.140Z,84.40
2022-12-08T17:29:03.742Z,84.40
2022-12-08T17:31:32.815Z,84.10
2022-12-08T17:34:00.987Z,84.30
2022-12-08T17:36:29.007Z,84.30
2022-12-08T17:38:57.272Z,84.60
2022-12-08T17:41:25.091Z,84.40
2022-12-08T17:43:52.909Z,84.70
2022-12-08T17:46:23.220Z,84.90
2022-12-08T17:48:51.500Z,85.00
2022-12-08T17:51:19.375Z,84.50
2022-12-08T17:53:49.042Z,84.60
2022-12-08T17:56:19.267Z,84.60
2022-12-08T17:58:52.635Z,84.50
2022-12-08T18:01:24.352Z,83.70
2022-12-08T18:03:52.712Z,83.30
2022-12-08T18:06:20.633Z,84.00
2022-12-08T18:08:48.492Z,83.90
2022-12-08T18:11:20.238Z,83.60
2022-12-08T18:13:48.895Z,83.80
2022-12-08T18:16:17.387Z,84.30
2022-12-08T18:18:46.778Z,84.20
2022-12-08T18:21:21.421Z,84.60
2022-12-08T18:23:51.638Z,84.70
2022-12-08T18:26:19.740Z,84.40
2022-12-08T18:28:47.527Z,84.50
2022-12-08T18:31:17.628Z,84.50
2022-12-08T18:33:47.896Z,85.00
2022-12-08T18:36:19.078Z,85.10
2022-12-08T18:38:47.548Z,84.40
2022-12-08T18:41:17.293Z,84.20
2022-12-08T18:43:45.270Z,84.40
2022-12-08T18:46:15.226Z,84.40
2022-12-08T18:48:47.428Z,84.70
2022-12-08T18:51:17.902Z,85.00
2022-12-08T18:53:46.423Z,85.40
2022-12-08T18:56:23.209Z,86.00
2022-12-08T18:58:51.077Z,85.80
2022-12-08T19:01:19.056Z,85.60
2022-12-08T19:04:12.019Z,85.40
2022-12-08T19:06:38.295Z,86.10
2022-12-08T19:09:06.625Z,85.80
2022-12-08T19:11:34.568Z,86.10
2022-12-08T19:14:02.404Z,86.60
2022-12-08T19:16:30.303Z,87.40
2022-12-08T19:18:59.586Z,86.80
2022-12-08T19:21:27.431Z,86.10
2022-12-08T19:23:58.252Z,86.00
2022-12-08T19:26:27.564Z,86.30
2022-12-08T19:28:55.494Z,86.20
2022-12-08T19:31:23.630Z,86.40
2022-12-08T19:33:51.475Z,86.90
2022-12-08T19:36:23.366Z,87.20
2022-12-08T19:39:08.918Z,87.60
2022-12-08T19:41:55.111Z,88.30
2022-12-08T19:44:42.167Z,88.10
2022-12-08T19:47:10.298Z,88.10
2022-12-08T19:49:38.214Z,89.80
2022-12-08T19:52:07.812Z,89.80
2022-12-08T19:54:36.259Z,90.00
2022-12-08T19:57:04.395Z,91.20
2022-12-08T19:59:32.621Z,90.90
2022-12-08T20:02:00.582Z,91.20
2022-12-08T20:04:28.726Z,93.60
2022-12-08T20:06:57.848Z,93.00
2022-12-08T20:09:27.024Z,93.60
2022-12-08T20:11:55.528Z,93.30
2022-12-08T20:14:24.107Z,91.60
2022-12-08T20:16:52.247Z,90.10
2022-12-08T20:19:20.222Z,88.70
2022-12-08T20:21:49.098Z,87.80
2022-12-08T20:24:17.723Z,87.20
2022-12-08T20:26:46.905Z,87.60
2022-12-08T20:29:16.959Z,88.30
2022-12-08T20:31:44.896Z,89.40
2022-12-08T20:34:15.729Z,89.80
2022-12-08T20:36:44.190Z,91.00
2022-12-08T20:39:13.584Z,91.10
2022-12-08T20:41:41.528Z,91.10
2022-12-08T20:44:11.174Z,91.10
2022-12-08T20:46:39.334Z,92.00
2022-12-08T20:49:07.212Z,92.90
2022-12-08T20:51:36.155Z,94.00
2022-12-08T20:54:05.529Z,94.80
2022-12-08T20:56:33.537Z,95.50
2022-12-08T20:59:01.373Z,96.10
2022-12-08T21:01:30.708Z,95.60
2022-12-08T21:03:58.728Z,95.30
2022-12-08T21:06:27.884Z,94.80
2022-12-08T21:08:56.031Z,93.90
2022-12-08T21:11:23.935Z,94.90
2022-12-08T21:13:51.824Z,94.60
2022-12-08T21:16:19.683Z,94.30
2022-12-08T21:18:49.206Z,94.00
2022-12-08T21:21:17.828Z,94.20
2022-12-08T21:23:46.243Z,93.90
2022-12-08T21:26:16.016Z,93.90
2022-12-08T21:28:44.435Z,94.60
2022-12-08T21:31:14.970Z,94.40
2022-12-08T21:33:43.093Z,94.80
2022-12-08T21:36:15.952Z,95.60
2022-12-08T21:38:45.264Z,95.80
2022-12-08T21:41:15.500Z,96.30
2022-12-08T21:43:43.832Z,97.20
2022-12-08T21:46:16.181Z,97.30
2022-12-08T21:48:44.367Z,98.00
2022-12-08T21:51:13.689Z,97.70
2022-12-08T21:53:41.773Z,96.60
2022-12-08T21:56:09.939Z,95.80
2022-12-08T21:58:39.501Z,95.60
2022-12-08T22:01:08.584Z,96.00
2022-12-08T22:03:37.007Z,96.50
2022-12-08T22:06:06.381Z,96.10
2022-12-08T22:08:35.902Z,95.80
2022-12-08T22:11:04.546Z,95.50
2022-12-08T22:13:35.352Z,96.10
2022-12-08T22:16:05.395Z,96.60
2022-12-08T22:18:33.876Z,96.20
2022-12-08T22:21:01.883Z,95.80
2022-12-08T22:23:30.421Z,95.50
2022-12-08T22:26:00.201Z,95.80
2022-12-08T22:28:31.070Z,95.80
2022-12-08T22:30:59.127Z,96.40
2022-12-08T22:33:29.208Z,97.30
2022-12-08T22:35:58.065Z,97.00
2022-12-08T22:38:26.474Z,96.40
2022-12-08T22:40:54.843Z,97.00
2022-12-08T22:43:24.606Z,96.80
2022-12-08T22:45:52.660Z,97.20
2022-12-08T22:48:20.824Z,97.10
2022-12-08T22:50:49.177Z,96.50
2022-12-08T22:53:17.264Z,96.10
2022-12-08T22:55:46.633Z,94.90
2022-12-08T22:58:14.576Z,93.40
2022-12-08T23:00:43.764Z,93.70
2022-12-08T23:03:11.732Z,94.10
2022-12-08T23:05:41.146Z,94.20
2022-12-08T23:08:10.601Z,94.60
2022-12-08T23:10:40.507Z,95.20
2022-12-08T23:13:08.736Z,96.10
2022-12-08T23:15:36.610Z,95.40
2022-12-08T23:18:06.451Z,95.20
2022-12-08T23:20:35.086Z,95.20
2022-12-08T23:23:03.138Z,94.30
2022-12-08T23:25:31.253Z,93.80
2022-12-08T23:27:59.264Z,93.70
2022-12-08T23:30:27.376Z,93.10
2022-12-08T23:32:56.499Z,92.80
2022-12-08T23:35:25.936Z,93.00
2022-12-08T23:37:54.241Z,92.60
2022-12-08T23:40:22.084Z,92.50
2022-12-08T23:42:50.064Z,92.40
2022-12-08T23:45:17.908Z,92.20
2022-12-08T23:47:45.701Z,92.50
2022-12-08T23:50:13.698Z,92.80
2022-12-08T23:52:43.049Z,93.30
2022-12-08T23:55:11.895Z,93.60
2022-12-08T23:57:40.008Z,93.50
